createdAt,value
2023-04-26T00:00:40.350Z,6.40
2023-04-26T00:03:13.564Z,5.60
2023-04-26T00:05:45.537Z,5.80
2023-04-26T00:08:17.287Z,6.00
2023-04-26T00:10:48.643Z,6.70
2023-04-26T00:13:19.911Z,6.10
2023-04-26T00:15:51.306Z,7.30
2023-04-26T00:18:22.672Z,6.80
2023-04-26T00:20:54.104Z,5.70
2023-04-26T00:23:26.577Z,5.90
2023-04-26T00:25:58.202Z,5.60
2023-04-26T00:28:29.654Z,7.40
2023-04-26T00:31:01.895Z,5.70
2023-04-26T00:33:33.298Z,6.80
2023-04-26T00:36:04.950Z,6.80
2023-04-26T00:38:36.353Z,7.00
2023-04-26T00:41:07.804Z,6.00
2023-04-26T00:43:40.174Z,5.70
2023-04-26T00:46:11.696Z,5.60
2023-04-26T00:48:43.136Z,6.10
2023-04-26T00:51:14.591Z,6.30
2023-04-26T00:53:46.134Z,5.40
2023-04-26T00:56:17.624Z,6.70
2023-04-26T00:58:50.551Z,7.10
2023-04-26T01:01:22.779Z,6.80
2023-04-26T01:03:54.363Z,6.00
2023-04-26T01:08:55.724Z,6.90
2023-04-26T01:11:27.261Z,7.10
2023-04-26T01:13:58.706Z,7.90
2023-04-26T01:16:30.112Z,7.30
2023-04-26T01:19:04.759Z,8.40
2023-04-26T01:21:36.630Z,7.20
2023-04-26T01:24:08.595Z,6.90
2023-04-26T01:26:46.096Z,7.60
2023-04-26T01:29:19.804Z,7.40
2023-04-26T01:31:51.375Z,8.10
2023-04-26T01:34:22.906Z,8.00
2023-04-26T01:36:54.358Z,6.80
2023-04-26T01:39:26.199Z,8.10
2023-04-26T01:41:58.790Z,8.50
2023-04-26T01:44:30.356Z,9.40
2023-04-26T01:47:02.787Z,9.30
2023-04-26T01:49:34.242Z,9.60
2023-04-26T01:52:05.749Z,13.90
2023-04-26T01:54:37.261Z,9.20
2023-04-26T01:57:08.887Z,10.40
2023-04-26T02:02:10.389Z,9.10
2023-04-26T02:04:42.859Z,9.80
2023-04-26T02:07:14.391Z,9.20
2023-04-26T02:09:50.338Z,9.60
2023-04-26T02:12:21.770Z,9.30
2023-04-26T02:14:53.269Z,10.60
2023-04-26T02:17:24.765Z,9.10
2023-04-26T02:19:57.524Z,9.00
2023-04-26T02:22:29.924Z,8.80
2023-04-26T02:25:01.339Z,9.60
2023-04-26T02:27:33.157Z,9.90
2023-04-26T02:30:05.800Z,9.30
2023-04-26T02:32:37.273Z,10.60
2023-04-26T02:35:09.892Z,10.50
2023-04-26T02:37:41.537Z,11.60
2023-04-26T02:42:45.758Z,10.70
2023-04-26T02:45:17.719Z,10.70
2023-04-26T02:50:18.959Z,9.80
2023-04-26T02:55:20.544Z,10.00
2023-04-26T02:57:51.933Z,10.10
2023-04-26T03:00:24.603Z,9.60
2023-04-26T03:02:57.283Z,9.10
2023-04-26T03:05:30.351Z,8.50
2023-04-26T03:08:02.883Z,10.90
2023-04-26T03:10:34.607Z,10.70
2023-04-26T03:13:07.566Z,10.00
2023-04-26T03:15:39.071Z,9.80
2023-04-26T03:18:10.826Z,10.10
2023-04-26T03:20:42.996Z,10.80
2023-04-26T03:23:14.576Z,10.70
2023-04-26T03:25:47.209Z,11.40
2023-04-26T03:28:18.622Z,10.60
2023-04-26T03:30:51.287Z,9.30
2023-04-26T03:33:22.776Z,9.40
2023-04-26T03:35:54.316Z,9.40
2023-04-26T03:38:26.378Z,9.30
2023-04-26T03:40:57.781Z,11.70
2023-04-26T03:43:29.349Z,11.80
2023-04-26T03:48:31.228Z,9.00
2023-04-26T03:51:03.111Z,9.10
2023-04-26T03:53:34.766Z,8.10
2023-04-26T03:56:06.383Z,8.80
2023-04-26T03:58:38.336Z,8.30
2023-04-26T04:01:10.504Z,8.50
2023-04-26T04:03:42.326Z,8.70
2023-04-26T04:06:14.157Z,8.80
2023-04-26T04:08:47.876Z,8.00
2023-04-26T04:13:50.191Z,7.70
2023-04-26T04:16:22.011Z,6.80
2023-04-26T04:18:53.997Z,7.00
2023-04-26T04:21:26.173Z,8.20
2023-04-26T04:23:57.933Z,7.60
2023-04-26T04:26:30.111Z,7.70
2023-04-26T04:29:08.963Z,7.90
2023-04-26T04:31:42.816Z,8.80
2023-04-26T04:34:14.836Z,7.40
2023-04-26T04:36:46.927Z,6.80
2023-04-26T04:39:19.364Z,8.50
2023-04-26T04:41:51.610Z,8.60
2023-04-26T04:44:24.589Z,7.20
2023-04-26T04:46:56.949Z,7.90
2023-04-26T04:49:29.299Z,8.10
2023-04-26T04:52:01.268Z,8.50
2023-04-26T04:54:33.226Z,7.70
2023-04-26T04:57:04.881Z,6.50
2023-04-26T05:02:07.684Z,7.30
2023-04-26T05:04:39.411Z,6.50
2023-04-26T05:07:13.070Z,6.00
2023-04-26T05:09:45.172Z,6.80
2023-04-26T05:12:16.581Z,6.20
2023-04-26T05:14:48.076Z,6.30
2023-04-26T05:17:19.957Z,6.30
2023-04-26T05:19:51.522Z,6.40
2023-04-26T05:22:23.043Z,6.70
2023-04-26T05:24:55.265Z,6.60
2023-04-26T05:27:27.062Z,6.10
2023-04-26T05:30:15.162Z,6.80
2023-04-26T05:32:53.770Z,7.00
2023-04-26T05:35:47.305Z,7.20
2023-04-26T05:38:19.772Z,6.50
2023-04-26T05:43:21.108Z,6.10
2023-04-26T05:45:56.200Z,6.60
2023-04-26T05:48:27.978Z,6.40
2023-04-26T05:50:59.396Z,5.50
2023-04-26T05:53:31.246Z,6.20
2023-04-26T05:56:02.712Z,5.50
2023-04-26T06:01:06.723Z,5.70
2023-04-26T06:03:39.288Z,4.90
2023-04-26T06:06:11.505Z,5.80
2023-04-26T06:08:45.996Z,5.70
2023-04-26T06:11:17.654Z,5.60
2023-04-26T06:13:49.335Z,6.50
2023-04-26T06:16:22.723Z,5.80
2023-04-26T06:18:55.401Z,5.20
2023-04-26T06:21:27.893Z,5.70
2023-04-26T06:23:59.590Z,5.00
2023-04-26T06:26:32.505Z,6.10
2023-04-26T06:29:04.110Z,5.60
2023-04-26T06:31:35.874Z,5.40
2023-04-26T06:34:08.493Z,3.70
2023-04-26T06:36:40.138Z,4.20
2023-04-26T06:39:11.565Z,5.10
2023-04-26T06:44:14.393Z,4.70
2023-04-26T06:46:47.530Z,4.30
2023-04-26T06:49:20.251Z,4.50
2023-04-26T06:51:53.055Z,4.30
2023-04-26T06:54:28.809Z,4.20
2023-04-26T06:57:01.493Z,4.50
2023-04-26T06:59:33.133Z,4.80
2023-04-26T07:02:04.694Z,4.70
2023-04-26T07:04:37.060Z,4.30
2023-04-26T07:07:09.747Z,3.30
2023-04-26T07:09:42.763Z,4.00
2023-04-26T07:14:46.180Z,3.40
2023-04-26T07:19:47.700Z,5.30
2023-04-26T07:22:19.081Z,3.50
2023-04-26T07:24:50.612Z,2.60
2023-04-26T07:27:22.101Z,2.70
2023-04-26T07:29:56.923Z,2.90
2023-04-26T07:32:28.720Z,2.90
2023-04-26T07:35:00.207Z,2.80
2023-04-26T07:37:31.732Z,3.10
2023-04-26T07:40:05.219Z,3.30
2023-04-26T07:42:36.858Z,2.60
2023-04-26T07:47:39.018Z,2.20
2023-04-26T07:50:12.887Z,2.30
2023-04-26T07:52:44.791Z,2.30
2023-04-26T07:55:17.676Z,2.20
2023-04-26T07:57:49.271Z,2.20
2023-04-26T08:00:23.545Z,2.20
2023-04-26T08:02:55.472Z,2.30
2023-04-26T08:05:28.056Z,2.10
2023-04-26T08:08:01.216Z,2.10
2023-04-26T08:10:32.619Z,2.30
2023-04-26T08:13:04.597Z,2.40
2023-04-26T08:15:36.027Z,2.20
2023-04-26T08:18:07.702Z,1.90
2023-04-26T08:23:09.184Z,2.50
2023-04-26T08:25:41.014Z,2.20
2023-04-26T08:28:14.869Z,2.40
2023-04-26T08:30:46.364Z,2.20
2023-04-26T08:33:19.079Z,2.20
2023-04-26T08:35:50.394Z,2.20
2023-04-26T08:38:23.004Z,2.50
2023-04-26T08:40:54.697Z,2.30
2023-04-26T08:43:27.674Z,2.20
2023-04-26T08:45:59.357Z,2.60
2023-04-26T08:48:30.981Z,2.50
2023-04-26T08:51:02.307Z,2.40
2023-04-26T08:53:33.735Z,2.00
2023-04-26T08:56:05.338Z,2.30
2023-04-26T08:58:37.072Z,2.10
2023-04-26T09:01:08.817Z,2.30
2023-04-26T09:03:40.610Z,2.50
2023-04-26T09:08:41.864Z,2.20
2023-04-26T09:11:13.185Z,2.00
2023-04-26T09:13:44.978Z,1.90
2023-04-26T09:16:16.555Z,2.50
2023-04-26T09:18:57.489Z,2.20
2023-04-26T09:21:30.662Z,2.20
2023-04-26T09:24:04.953Z,2.40
2023-04-26T09:26:36.262Z,2.60
2023-04-26T09:29:17.827Z,2.60
2023-04-26T09:31:50.246Z,2.30
2023-04-26T09:34:21.906Z,2.20
2023-04-26T09:36:55.779Z,2.20
2023-04-26T09:39:38.340Z,2.00
2023-04-26T09:42:09.934Z,2.10
2023-04-26T09:44:41.815Z,2.50
2023-04-26T09:47:13.557Z,2.30
2023-04-26T09:49:49.098Z,2.10
2023-04-26T09:52:20.679Z,2.20
2023-04-26T09:57:23.800Z,2.10
2023-04-26T09:59:56.589Z,2.20
2023-04-26T10:02:30.261Z,2.40
2023-04-26T10:05:03.309Z,2.40
2023-04-26T10:07:35.287Z,2.10
2023-04-26T10:10:07.786Z,2.30
2023-04-26T10:12:39.253Z,2.10
2023-04-26T10:15:12.999Z,2.10
2023-04-26T10:17:44.485Z,2.50
2023-04-26T10:20:16.492Z,1.90
2023-04-26T10:22:53.594Z,1.70
2023-04-26T10:25:27.088Z,2.20
2023-04-26T10:28:01.164Z,1.80
2023-04-26T10:30:33.118Z,2.20
2023-04-26T10:33:18.114Z,2.10
2023-04-26T10:36:07.188Z,2.00
2023-04-26T10:38:39.550Z,2.00
2023-04-26T10:41:35.143Z,2.00
2023-04-26T10:44:40.206Z,2.00
2023-04-26T10:47:25.311Z,1.70
2023-04-26T10:50:05.664Z,2.00
2023-04-26T10:52:37.869Z,2.00
2023-04-26T10:55:10.595Z,1.90
2023-04-26T10:57:52.660Z,2.00
2023-04-26T11:00:34.358Z,1.40
2023-04-26T11:03:13.458Z,1.60
2023-04-26T11:06:01.906Z,2.00
2023-04-26T11:08:34.476Z,1.70
2023-04-26T11:11:13.807Z,1.80
2023-04-26T11:13:45.440Z,1.50
2023-04-26T11:18:50.805Z,1.50
2023-04-26T11:21:22.938Z,1.10
2023-04-26T11:23:57.734Z,2.40
2023-04-26T11:26:36.731Z,1.60
2023-04-26T11:29:13.845Z,1.50
2023-04-26T11:31:45.365Z,1.60
2023-04-26T11:36:47.907Z,1.40
2023-04-26T11:39:19.498Z,1.50
2023-04-26T11:44:24.158Z,1.40
2023-04-26T11:47:00.330Z,1.60
2023-04-26T11:49:31.929Z,1.20
2023-04-26T11:54:33.483Z,2.20
2023-04-26T11:57:04.932Z,1.30
2023-04-26T11:59:36.490Z,1.20
2023-04-26T12:02:11.267Z,1.70
2023-04-26T12:04:44.390Z,1.40
2023-04-26T12:07:15.951Z,1.40
2023-04-26T12:09:47.607Z,1.20
2023-04-26T12:12:19.244Z,1.80
2023-04-26T12:14:50.638Z,1.50
2023-04-26T12:17:22.954Z,1.70
2023-04-26T12:19:54.697Z,1.40
2023-04-26T12:22:26.230Z,1.70
2023-04-26T12:25:08.463Z,1.20
2023-04-26T12:27:41.491Z,1.40
2023-04-26T12:30:14.166Z,1.50
2023-04-26T12:32:46.221Z,1.60
2023-04-26T12:35:18.194Z,1.60
2023-04-26T12:37:50.886Z,1.80
2023-04-26T12:40:25.185Z,1.60
2023-04-26T12:42:56.774Z,1.80
2023-04-26T12:48:00.010Z,1.10
2023-04-26T12:50:31.782Z,1.40
2023-04-26T12:55:33.211Z,1.70
2023-04-26T12:58:04.684Z,1.50
2023-04-26T13:00:36.521Z,1.20
2023-04-26T13:03:08.291Z,1.50
2023-04-26T13:05:40.050Z,1.30
2023-04-26T13:10:41.142Z,1.50
2023-04-26T13:13:12.615Z,1.80
2023-04-26T13:15:44.246Z,1.50
2023-04-26T13:20:48.212Z,1.90
2023-04-26T13:23:19.905Z,1.80
2023-04-26T13:25:51.434Z,1.80
2023-04-26T13:28:22.846Z,1.50
2023-04-26T13:30:54.277Z,1.70
2023-04-26T13:33:25.868Z,1.80
2023-04-26T13:35:57.208Z,1.90
2023-04-26T13:38:30.227Z,2.50
2023-04-26T13:41:03.289Z,2.80
2023-04-26T13:43:34.722Z,1.80
2023-04-26T13:46:06.622Z,1.60
2023-04-26T13:48:38.072Z,1.70
2023-04-26T13:51:09.672Z,1.60
2023-04-26T13:53:41.168Z,1.80
2023-04-26T13:56:12.683Z,2.10
2023-04-26T14:01:14.891Z,3.50
2023-04-26T14:03:46.451Z,1.60
2023-04-26T14:06:18.336Z,3.80
2023-04-26T14:08:49.804Z,2.10
2023-04-26T14:11:23.563Z,1.80
2023-04-26T14:13:56.907Z,1.40
2023-04-26T14:16:28.423Z,1.80
2023-04-26T14:19:00.139Z,2.20
2023-04-26T14:24:02.486Z,2.90
2023-04-26T14:26:34.445Z,1.90
2023-04-26T14:29:06.722Z,2.70
2023-04-26T14:31:38.360Z,1.90
2023-04-26T14:34:09.809Z,2.00
2023-04-26T14:36:41.244Z,1.70
2023-04-26T14:39:13.855Z,2.40
2023-04-26T14:41:47.403Z,8.80
2023-04-26T14:44:19.631Z,20.20
2023-04-26T14:46:50.998Z,6.60
2023-04-26T14:49:22.387Z,2.80
2023-04-26T14:51:54.029Z,2.10
2023-04-26T14:56:55.572Z,1.90
2023-04-26T14:59:27.268Z,2.20
2023-04-26T15:01:58.779Z,1.70
2023-04-26T15:07:00.966Z,2.00
2023-04-26T15:12:05.042Z,1.90
2023-04-26T15:14:36.549Z,2.10
2023-04-26T15:17:08.466Z,1.90
2023-04-26T15:19:40.667Z,2.20
2023-04-26T15:24:42.372Z,2.00
2023-04-26T15:29:44.310Z,2.10
2023-04-26T15:32:15.878Z,2.20
2023-04-26T15:34:47.911Z,2.50
2023-04-26T15:37:19.178Z,2.00
2023-04-26T15:39:50.732Z,2.40
2023-04-26T15:44:52.026Z,1.90
2023-04-26T15:49:55.060Z,2.00
2023-04-26T15:52:26.504Z,1.60
2023-04-26T15:57:28.036Z,2.30
2023-04-26T16:00:00.068Z,2.00
2023-04-26T16:02:31.984Z,2.00
2023-04-26T16:05:04.547Z,2.20
2023-04-26T16:07:38.967Z,1.90
2023-04-26T16:10:14.140Z,3.00
2023-04-26T16:12:46.430Z,2.70
2023-04-26T16:15:18.038Z,2.50
2023-04-26T16:17:49.501Z,3.10
2023-04-26T16:20:21.596Z,3.20
2023-04-26T16:22:53.392Z,3.70
2023-04-26T16:25:25.043Z,7.00
2023-04-26T16:27:57.079Z,5.30
2023-04-26T16:30:29.235Z,4.40
2023-04-26T16:33:01.023Z,3.60
2023-04-26T16:35:33.394Z,2.70
2023-04-26T16:38:04.881Z,2.70
2023-04-26T16:40:36.302Z,2.00
2023-04-26T16:43:14.797Z,2.60
2023-04-26T16:45:48.579Z,2.80
2023-04-26T16:48:20.199Z,2.70
2023-04-26T16:53:24.151Z,2.70
2023-04-26T16:55:55.760Z,2.80
2023-04-26T16:58:27.326Z,3.00
2023-04-26T17:03:32.152Z,3.40
2023-04-26T17:06:04.702Z,2.40
2023-04-26T17:08:37.117Z,2.50
2023-04-26T17:11:10.150Z,2.40
2023-04-26T17:13:43.285Z,2.80
2023-04-26T17:16:16.027Z,2.60
2023-04-26T17:18:48.382Z,2.30
2023-04-26T17:21:20.063Z,2.60
2023-04-26T17:26:24.841Z,2.80
2023-04-26T17:28:56.990Z,2.60
2023-04-26T17:31:28.641Z,3.00
2023-04-26T17:36:29.682Z,2.70
2023-04-26T17:39:01.493Z,3.10
2023-04-26T17:44:02.819Z,3.00
2023-04-26T17:46:35.782Z,2.50
2023-04-26T17:49:08.076Z,2.90
2023-04-26T17:51:39.561Z,3.40
2023-04-26T17:54:10.967Z,3.00
2023-04-26T17:56:43.579Z,3.00
2023-04-26T17:59:15.046Z,3.30
2023-04-26T18:04:16.765Z,4.20
2023-04-26T18:06:48.339Z,3.30
2023-04-26T18:09:19.722Z,4.30
2023-04-26T18:11:51.568Z,3.90
2023-04-26T18:14:24.962Z,4.30
2023-04-26T18:16:56.870Z,4.60
2023-04-26T18:21:58.433Z,3.90
2023-04-26T18:24:29.857Z,3.70
2023-04-26T18:27:01.542Z,4.50
2023-04-26T18:29:33.192Z,4.40
2023-04-26T18:34:34.613Z,3.90
2023-04-26T18:37:06.354Z,4.50
2023-04-26T18:42:07.924Z,4.60
2023-04-26T18:44:39.525Z,5.10
2023-04-26T18:47:11.405Z,4.20
2023-04-26T18:49:42.948Z,5.10
2023-04-26T18:52:14.733Z,4.20
2023-04-26T18:57:18.437Z,4.00
2023-04-26T18:59:49.987Z,4.30
2023-04-26T19:02:21.715Z,4.10
2023-04-26T19:04:53.516Z,3.60
2023-04-26T19:07:25.271Z,3.50
2023-04-26T19:10:00.962Z,3.50
2023-04-26T19:12:32.563Z,2.90
2023-04-26T19:15:04.631Z,3.70
2023-04-26T19:17:37.644Z,3.80
2023-04-26T19:20:13.273Z,3.80
2023-04-26T19:22:45.523Z,3.80
2023-04-26T19:25:20.594Z,3.80
2023-04-26T19:27:52.568Z,4.00
2023-04-26T19:30:24.029Z,3.90
2023-04-26T19:32:55.804Z,3.90
2023-04-26T19:35:27.324Z,3.90
2023-04-26T19:37:58.744Z,4.30
2023-04-26T19:40:30.418Z,3.40
2023-04-26T19:45:32.325Z,6.50
2023-04-26T19:48:04.985Z,6.40
2023-04-26T19:50:41.918Z,7.10
2023-04-26T19:53:14.710Z,8.60
2023-04-26T19:55:46.358Z,8.80
2023-04-26T19:58:18.370Z,10.10
2023-04-26T20:00:51.348Z,9.10
2023-04-26T20:03:23.696Z,7.00
2023-04-26T20:05:56.031Z,6.20
2023-04-26T20:08:29.253Z,4.70
2023-04-26T20:11:06.245Z,4.30
2023-04-26T20:13:37.802Z,4.40
2023-04-26T20:16:10.644Z,5.70
2023-04-26T20:18:42.967Z,5.20
2023-04-26T20:21:15.087Z,5.70
2023-04-26T20:23:47.492Z,5.30
2023-04-26T20:26:19.269Z,4.50
2023-04-26T20:28:50.645Z,5.40
2023-04-26T20:31:23.142Z,5.40
2023-04-26T20:33:54.924Z,5.50
2023-04-26T20:36:27.550Z,5.00
2023-04-26T20:38:58.904Z,4.40
2023-04-26T20:41:30.325Z,4.60
2023-04-26T20:44:02.108Z,4.60
2023-04-26T20:46:35.528Z,4.30
2023-04-26T20:49:07.870Z,4.50
2023-04-26T20:51:39.495Z,4.60
2023-04-26T20:54:10.933Z,4.60
2023-04-26T20:56:42.419Z,4.30
2023-04-26T20:59:13.836Z,4.50
2023-04-26T21:04:15.824Z,4.40
2023-04-26T21:09:17.378Z,4.00
2023-04-26T21:11:49.035Z,4.20
2023-04-26T21:14:20.532Z,3.70
2023-04-26T21:16:52.486Z,4.50
2023-04-26T21:19:23.986Z,4.00
2023-04-26T21:21:55.615Z,4.10
2023-04-26T21:24:27.025Z,4.60
2023-04-26T21:26:58.535Z,4.20
2023-04-26T21:29:30.074Z,4.20
2023-04-26T21:32:01.596Z,4.60
2023-04-26T21:34:33.014Z,6.40
2023-04-26T21:37:04.623Z,7.50
2023-04-26T21:39:36.041Z,7.40
2023-04-26T21:42:07.770Z,11.10
2023-04-26T21:44:39.135Z,17.50
2023-04-26T21:47:10.596Z,21.30
2023-04-26T21:49:42.050Z,27.90
2023-04-26T21:52:13.410Z,29.20
2023-04-26T21:54:44.796Z,27.80
2023-04-26T21:57:16.449Z,24.10
2023-04-26T21:59:48.584Z,22.00
2023-04-26T22:02:20.183Z,20.40
2023-04-26T22:04:51.642Z,17.50
2023-04-26T22:07:23.270Z,18.20
2023-04-26T22:09:55.646Z,15.80
2023-04-26T22:12:31.561Z,15.80
2023-04-26T22:15:03.448Z,15.10
2023-04-26T22:17:34.965Z,14.70
2023-04-26T22:20:07.764Z,14.30
2023-04-26T22:22:39.216Z,13.20
2023-04-26T22:25:11.849Z,11.70
2023-04-26T22:27:43.407Z,11.50
2023-04-26T22:30:25.595Z,12.70
2023-04-26T22:32:59.910Z,12.40
2023-04-26T22:35:31.396Z,12.10
2023-04-26T22:38:02.795Z,10.80
2023-04-26T22:40:34.193Z,10.80
2023-04-26T22:43:06.457Z,12.60
2023-04-26T22:45:38.053Z,12.00
2023-04-26T22:48:09.577Z,11.20
2023-04-26T22:50:41.250Z,11.50
2023-04-26T22:55:42.583Z,9.60
2023-04-26T22:58:14.017Z,12.10
2023-04-26T23:00:45.652Z,12.30
2023-04-26T23:03:17.114Z,13.00
2023-04-26T23:05:48.740Z,10.70
2023-04-26T23:08:20.260Z,10.60
2023-04-26T23:10:51.685Z,10.00
2023-04-26T23:13:23.126Z,9.00
2023-04-26T23:15:54.496Z,9.10
2023-04-26T23:18:26.824Z,8.70
2023-04-26T23:20:58.230Z,7.60
2023-04-26T23:23:30.824Z,7.50
2023-04-26T23:26:02.502Z,7.30
2023-04-26T23:28:34.219Z,7.20
2023-04-26T23:33:35.369Z,5.70
2023-04-26T23:36:07.643Z,5.50
2023-04-26T23:38:39.139Z,5.40
2023-04-26T23:41:10.503Z,6.30
2023-04-26T23:43:42.043Z,5.70
2023-04-26T23:46:13.527Z,5.70
2023-04-26T23:48:45.058Z,6.90
2023-04-26T23:51:16.514Z,6.70
2023-04-26T23:53:47.930Z,4.90
2023-04-26T23:56:19.404Z,5.50
2023-04-26T23:58:50.806Z,5.50
